Time;durP1;ratioP1;P1;durP2;ratioP2;P2;SDS_P1;SDS_P2;PMS_P1;PMS_P2;Temp;Humidity;BMP_temperature;BMP_pressure;BME280_temperature;BME280_humidity;BME280_pressure;Samples;Min_cycle;Max_cycle;Signal;HPM_P1;HPM_P2
2023/12/14 00:02:09;;;;;;;;;;;12.30;87.80;;;;;;4880840;29;19915;-80
2023/12/14 00:04:45;;;;;;;;;;;12.30;87.80;;;;;;4900944;29;19930;-80
2023/12/14 00:07:22;;;;;;;;;;;12.30;87.80;;;;;;4937873;28;19907;-81
2023/12/14 00:09:57;;;;;;;;;;;12.20;87.70;;;;;;4914095;29;19910;-80
2023/12/14 00:12:24;;;;;;;;;;;12.30;87.80;;;;;;4954792;28;19906;-80
2023/12/14 00:14:57;;;;;;;;;;;12.30;87.80;;;;;;4974681;28;19913;-80
2023/12/14 00:17:39;;;;;;;;;;;12.30;87.80;;;;;;4975354;28;19907;-81
2023/12/14 00:23:36;;;;;;;;;;;12.30;87.80;;;;;;4934908;29;20062;-80
2023/12/14 00:26:28;;;;;;;;;;;12.30;87.80;;;;;;4933423;29;19969;-80
2023/12/14 00:28:59;;;;;;;;;;;12.30;87.80;;;;;;4937742;28;19953;-81
2023/12/14 00:31:28;;;;;;;;;;;12.30;87.80;;;;;;4940053;28;19913;-80
2023/12/14 00:33:59;;;;;;;;;;;12.30;87.80;;;;;;4957143;28;19937;-81
2023/12/14 00:36:26;;;;;;;;;;;12.30;87.80;;;;;;4974368;28;19910;-80
2023/12/14 00:39:15;;;;;;;;;;;12.30;87.80;;;;;;4959713;28;19909;-81
2023/12/14 00:41:51;;;;;;;;;;;12.30;87.80;;;;;;4945380;28;19960;-80
2023/12/14 00:47:12;;;;;;;;;;;12.30;87.80;;;;;;4978562;28;19912;-80
2023/12/14 00:50:05;;;;;;;;;;;12.30;87.80;;;;;;4973560;28;19906;-81
2023/12/14 00:52:38;;;;;;;;;;;12.30;87.80;;;;;;4977364;28;19906;-81
2023/12/14 00:55:26;;;;;;;;;;;12.30;87.80;;;;;;4960173;28;19906;-80
2023/12/14 00:58:15;;;;;;;;;;;12.30;87.80;;;;;;4953875;28;19906;-80
2023/12/14 01:00:47;;;;;;;;;;;12.30;87.80;;;;;;4943876;28;19906;-81
2023/12/14 01:06:27;;;;;;;;;;;12.30;87.80;;;;;;4978190;28;19964;-80
2023/12/14 01:08:56;;;;;;;;;;;12.40;87.80;;;;;;4960567;28;19913;-81
2023/12/14 01:11:25;;;;;;;;;;;12.30;87.80;;;;;;4957821;28;19910;-81
2023/12/14 01:17:16;;;;;;;;;;;12.30;87.80;;;;;;4981068;28;19972;-79
2023/12/14 01:19:46;;;;;;;;;;;12.20;87.70;;;;;;4997135;28;20366;-81
2023/12/14 01:22:15;;;;;;;;;;;12.30;87.80;;;;;;4971393;28;19910;-81
2023/12/14 01:28:10;;;;;;;;;;;12.30;87.80;;;;;;4997215;28;20389;-80
2023/12/14 01:34:11;;;;;;;;;;;12.30;87.80;;;;;;4976294;28;19997;-80
2023/12/14 01:36:47;;;;;;;;;;;12.20;87.60;;;;;;4975412;28;19906;-80
2023/12/14 01:39:39;;;;;;;;;;;12.30;87.70;;;;;;4960060;28;19949;-81
2023/12/14 01:42:17;;;;;;;;;;;12.30;87.70;;;;;;4987403;28;19913;-81
2023/12/14 01:54:15;;;;;;;;;;;12.30;87.80;;;;;;4936967;29;19995;-80
2023/12/14 01:57:05;;;;;;;;;;;12.20;87.70;;;;;;4936445;29;19945;-80
2023/12/14 01:59:50;;;;;;;;;;;12.30;87.80;;;;;;4936157;29;19907;-81
2023/12/14 02:02:23;;;;;;;;;;;12.30;87.70;;;;;;4920638;29;19911;-80
2023/12/14 02:11:11;;;;;;;;;;;12.30;87.70;;;;;;4936674;29;19939;-80
2023/12/14 02:13:40;;;;;;;;;;;12.20;87.60;;;;;;4938151;28;19906;-79
2023/12/14 02:25:42;;;;;;;;;;;12.30;87.80;;;;;;4956469;28;19928;-81
2023/12/14 02:28:29;;;;;;;;;;;12.30;87.80;;;;;;4994816;28;19963;-80
2023/12/14 02:31:20;;;;;;;;;;;12.20;87.70;;;;;;4962495;28;20465;-80
2023/12/14 02:36:56;;;;;;;;;;;12.20;87.70;;;;;;4995987;28;19913;-80
2023/12/14 02:45:33;;;;;;;;;;;12.30;87.70;;;;;;4962212;28;19912;-80
2023/12/14 02:48:02;;;;;;;;;;;12.30;87.70;;;;;;4993217;28;19914;-80
2023/12/14 02:50:33;;;;;;;;;;;12.20;87.70;;;;;;4977569;28;19956;-80
2023/12/14 02:56:25;;;;;;;;;;;12.30;87.70;;;;;;4954694;29;19965;-80
2023/12/14 02:58:55;;;;;;;;;;;12.30;87.70;;;;;;4954488;29;19906;-80
2023/12/14 03:01:27;;;;;;;;;;;12.30;87.70;;;;;;4951597;28;19914;-80
2023/12/14 03:03:59;;;;;;;;;;;12.30;87.70;;;;;;4954291;29;19907;-80
2023/12/14 03:06:30;;;;;;;;;;;12.30;87.70;;;;;;4922579;29;19906;-80
2023/12/14 03:09:28;;;;;;;;;;;12.20;87.60;;;;;;4948874;29;19998;-80
2023/12/14 03:15:30;;;;;;;;;;;12.30;87.80;;;;;;4935538;29;19945;-80
2023/12/14 03:21:21;;;;;;;;;;;12.30;87.80;;;;;;4945364;28;19956;-80
2023/12/14 03:26:50;;;;;;;;;;;12.20;87.60;;;;;;4975965;28;19944;-80
2023/12/14 03:29:21;;;;;;;;;;;12.30;87.80;;;;;;4937991;29;20375;-80
2023/12/14 03:34:59;;;;;;;;;;;12.20;87.70;;;;;;4954304;29;20417;-79
2023/12/14 03:46:35;;;;;;;;;;;12.20;87.70;;;;;;4934055;29;19995;-80
2023/12/14 03:49:24;;;;;;;;;;;12.20;87.80;;;;;;4934887;29;19907;-79
2023/12/14 03:51:51;;;;;;;;;;;12.20;87.70;;;;;;4934712;29;19907;-79
2023/12/14 03:57:20;;;;;;;;;;;12.20;87.60;;;;;;4878559;29;19933;-79
2023/12/14 03:59:50;;;;;;;;;;;12.20;87.60;;;;;;4867661;29;19907;-80
2023/12/14 04:02:17;;;;;;;;;;;12.20;87.60;;;;;;4896379;29;19919;-79
2023/12/14 04:08:07;;;;;;;;;;;12.20;87.70;;;;;;4901422;29;20387;-79
2023/12/14 04:10:33;;;;;;;;;;;12.20;87.60;;;;;;4915626;29;19907;-80
2023/12/14 04:13:21;;;;;;;;;;;12.20;87.70;;;;;;4914777;29;20025;-80
2023/12/14 04:18:53;;;;;;;;;;;12.20;87.70;;;;;;4919359;28;19997;-79
2023/12/14 04:21:20;;;;;;;;;;;12.30;87.80;;;;;;4974690;28;19910;-80
2023/12/14 04:24:00;;;;;;;;;;;12.20;87.70;;;;;;4956568;28;20370;-80
2023/12/14 04:27:18;;;;;;;;;;;12.20;87.70;;;;;;4960531;28;20343;-79
2023/12/14 04:29:48;;;;;;;;;;;12.20;87.70;;;;;;4957527;28;19961;-79
2023/12/14 04:32:13;;;;;;;;;;;12.20;87.70;;;;;;4957549;28;19913;-80
2023/12/14 04:34:40;;;;;;;;;;;12.10;87.70;;;;;;4974112;28;19906;-79
2023/12/14 04:37:08;;;;;;;;;;;12.30;87.80;;;;;;4957698;28;19910;-79
2023/12/14 04:39:38;;;;;;;;;;;12.20;87.70;;;;;;4974612;28;19909;-80
2023/12/14 04:42:06;;;;;;;;;;;12.20;87.70;;;;;;4957232;28;19910;-80
2023/12/14 04:44:32;;;;;;;;;;;12.20;87.70;;;;;;4957215;28;19910;-80
2023/12/14 04:47:02;;;;;;;;;;;12.30;87.80;;;;;;4957079;28;20286;-79
2023/12/14 04:49:29;;;;;;;;;;;12.20;87.70;;;;;;4957143;28;19910;-80
2023/12/14 04:51:54;;;;;;;;;;;12.20;87.70;;;;;;4957379;28;19906;-80
2023/12/14 04:54:23;;;;;;;;;;;12.20;87.60;;;;;;4956673;28;19913;-80
2023/12/14 04:56:49;;;;;;;;;;;12.20;87.70;;;;;;4956980;28;20347;-80
2023/12/14 04:59:15;;;;;;;;;;;12.20;87.60;;;;;;4956848;28;19969;-80
2023/12/14 05:01:42;;;;;;;;;;;12.20;87.70;;;;;;4940971;28;20049;-80
2023/12/14 05:04:08;;;;;;;;;;;12.20;87.70;;;;;;4941277;28;20389;-80
2023/12/14 05:06:35;;;;;;;;;;;12.20;87.70;;;;;;4957100;28;19918;-79
2023/12/14 05:09:05;;;;;;;;;;;12.20;87.60;;;;;;4956884;28;19906;-80
2023/12/14 05:11:30;;;;;;;;;;;12.20;87.70;;;;;;4956138;28;19906;-78
2023/12/14 05:14:06;;;;;;;;;;;12.20;87.60;;;;;;4974391;28;19912;-79
2023/12/14 05:16:34;;;;;;;;;;;12.20;87.60;;;;;;4973574;28;19968;-80
2023/12/14 05:19:03;;;;;;;;;;;12.20;87.70;;;;;;4956772;28;19957;-79
2023/12/14 05:21:38;;;;;;;;;;;12.20;87.60;;;;;;4972142;28;19914;-79
2023/12/14 05:24:09;;;;;;;;;;;12.20;87.60;;;;;;4977108;28;19902;-78
2023/12/14 05:26:36;;;;;;;;;;;12.20;87.60;;;;;;4959810;28;19960;-80
2023/12/14 05:29:03;;;;;;;;;;;12.20;87.60;;;;;;4960747;28;19984;-79
2023/12/14 05:31:29;;;;;;;;;;;12.20;87.70;;;;;;4959441;28;19948;-79
2023/12/14 05:33:55;;;;;;;;;;;12.20;87.60;;;;;;4960068;28;19915;-80
2023/12/14 05:36:21;;;;;;;;;;;12.20;87.70;;;;;;4959597;28;20515;-79
2023/12/14 05:38:47;;;;;;;;;;;12.20;87.70;;;;;;4976984;28;19933;-80
2023/12/14 05:41:16;;;;;;;;;;;12.20;87.70;;;;;;4959610;28;19918;-79
2023/12/14 05:43:41;;;;;;;;;;;12.20;87.60;;;;;;4959721;28;19910;-80
2023/12/14 05:46:07;;;;;;;;;;;12.20;87.70;;;;;;4955759;29;20268;-80
2023/12/14 05:48:34;;;;;;;;;;;12.10;87.60;;;;;;4959852;28;19950;-80
2023/12/14 05:51:01;;;;;;;;;;;12.20;87.70;;;;;;4977001;28;19910;-80
2023/12/14 05:53:27;;;;;;;;;;;12.20;87.60;;;;;;4960398;28;20379;-79
2023/12/14 05:55:53;;;;;;;;;;;12.20;87.60;;;;;;4959226;28;19910;-79
2023/12/14 05:58:19;;;;;;;;;;;12.20;87.60;;;;;;4960248;28;19997;-79
2023/12/14 06:00:47;;;;;;;;;;;12.20;87.60;;;;;;4976097;28;19906;-80
2023/12/14 06:03:14;;;;;;;;;;;12.20;87.70;;;;;;4959519;28;19917;-78
2023/12/14 06:05:40;;;;;;;;;;;12.20;87.60;;;;;;4958830;28;19941;-80
2023/12/14 06:08:07;;;;;;;;;;;12.20;87.60;;;;;;4943211;28;19969;-79
2023/12/14 06:10:33;;;;;;;;;;;12.20;87.60;;;;;;4958911;28;20005;-77
2023/12/14 06:12:58;;;;;;;;;;;12.20;87.60;;;;;;4959591;28;19933;-79
2023/12/14 06:15:24;;;;;;;;;;;12.20;87.60;;;;;;4975793;28;19910;-79
2023/12/14 06:17:50;;;;;;;;;;;12.20;87.60;;;;;;4975381;28;20366;-81
2023/12/14 06:20:15;;;;;;;;;;;12.20;87.60;;;;;;4958232;28;19916;-80
2023/12/14 06:22:41;;;;;;;;;;;12.20;87.70;;;;;;4976510;28;19921;-78
2023/12/14 06:25:07;;;;;;;;;;;12.20;87.70;;;;;;4958998;28;19906;-79
2023/12/14 06:27:35;;;;;;;;;;;12.20;87.60;;;;;;4958594;28;19961;-79
2023/12/14 06:30:01;;;;;;;;;;;12.20;87.70;;;;;;4975746;28;19937;-79
2023/12/14 06:32:26;;;;;;;;;;;12.20;87.70;;;;;;4957961;28;20323;-80
2023/12/14 06:34:53;;;;;;;;;;;12.20;87.60;;;;;;4988516;28;19932;-81
2023/12/14 06:37:19;;;;;;;;;;;12.20;87.60;;;;;;4978073;28;19906;-80
2023/12/14 06:39:44;;;;;;;;;;;12.20;87.60;;;;;;4977868;28;19932;-80
2023/12/14 06:42:11;;;;;;;;;;;12.20;87.60;;;;;;4997904;28;19924;-80
2023/12/14 06:44:39;;;;;;;;;;;12.00;87.50;;;;;;4977524;28;19909;-79
2023/12/14 06:47:06;;;;;;;;;;;12.20;87.60;;;;;;4977254;28;20293;-78
2023/12/14 06:49:33;;;;;;;;;;;12.20;87.60;;;;;;4995147;28;19956;-79
2023/12/14 06:51:58;;;;;;;;;;;12.20;87.60;;;;;;4977619;28;20260;-79
2023/12/14 06:54:24;;;;;;;;;;;12.10;87.50;;;;;;4977723;28;19905;-78
2023/12/14 06:56:52;;;;;;;;;;;12.20;87.60;;;;;;4994768;28;19910;-80
2023/12/14 06:59:18;;;;;;;;;;;12.20;87.60;;;;;;4977834;28;20322;-79
2023/12/14 07:01:43;;;;;;;;;;;12.20;87.50;;;;;;4977891;28;19913;-79
2023/12/14 07:04:10;;;;;;;;;;;12.20;87.50;;;;;;4978452;28;19910;-80
2023/12/14 07:06:36;;;;;;;;;;;12.20;87.60;;;;;;4977797;28;19906;-81
2023/12/14 07:09:03;;;;;;;;;;;12.20;87.60;;;;;;4977989;28;19917;-79
2023/12/14 07:11:29;;;;;;;;;;;12.20;87.60;;;;;;4978210;28;19936;-78
2023/12/14 07:13:55;;;;;;;;;;;12.20;87.50;;;;;;4976759;28;19921;-78
2023/12/14 07:16:28;;;;;;;;;;;12.10;87.50;;;;;;4993307;28;20660;-81
2023/12/14 07:19:00;;;;;;;;;;;12.20;87.50;;;;;;4945104;28;20005;-81
2023/12/14 07:21:26;;;;;;;;;;;12.10;87.50;;;;;;4994195;28;19914;-79
2023/12/14 07:23:52;;;;;;;;;;;12.20;87.60;;;;;;4961983;28;20702;-79
2023/12/14 07:26:19;;;;;;;;;;;12.20;87.60;;;;;;4958135;28;19958;-78
2023/12/14 07:28:48;;;;;;;;;;;12.20;87.60;;;;;;4958298;28;19910;-78
2023/12/14 07:31:17;;;;;;;;;;;12.20;87.60;;;;;;4974854;28;19917;-78
2023/12/14 07:33:47;;;;;;;;;;;12.20;87.50;;;;;;4974296;28;19997;-80
2023/12/14 07:36:13;;;;;;;;;;;12.20;87.50;;;;;;4958014;28;19993;-80
2023/12/14 07:38:40;;;;;;;;;;;12.20;87.60;;;;;;4942153;28;20906;-79
2023/12/14 07:41:06;;;;;;;;;;;12.20;87.50;;;;;;4974332;28;19913;-79
2023/12/14 07:43:31;;;;;;;;;;;12.20;87.50;;;;;;4956524;28;20271;-77
2023/12/14 07:45:58;;;;;;;;;;;12.20;87.50;;;;;;4956476;28;19953;-79
2023/12/14 07:48:23;;;;;;;;;;;12.20;87.40;;;;;;4952001;28;19910;-78
2023/12/14 07:50:49;;;;;;;;;;;12.20;87.00;;;;;;4953103;29;19907;-78
2023/12/14 07:53:14;;;;;;;;;;;12.20;87.20;;;;;;4952914;28;19911;-78
2023/12/14 07:55:40;;;;;;;;;;;12.20;87.20;;;;;;4952846;29;20025;-78
2023/12/14 07:58:06;;;;;;;;;;;12.20;87.30;;;;;;4952651;29;20264;-79
2023/12/14 08:00:31;;;;;;;;;;;12.20;87.30;;;;;;4954450;29;19933;-79
2023/12/14 08:02:57;;;;;;;;;;;12.20;87.40;;;;;;4952464;28;19918;-79
2023/12/14 08:05:22;;;;;;;;;;;12.20;87.40;;;;;;4954483;29;19910;-78
2023/12/14 08:07:48;;;;;;;;;;;12.20;87.40;;;;;;4952728;29;19993;-79
2023/12/14 08:10:13;;;;;;;;;;;12.20;87.40;;;;;;4952326;29;20315;-78
2023/12/14 08:12:39;;;;;;;;;;;12.20;87.50;;;;;;4952480;28;20426;-79
2023/12/14 08:15:04;;;;;;;;;;;12.20;87.90;;;;;;4953516;29;19917;-78
2023/12/14 08:17:30;;;;;;;;;;;12.20;87.50;;;;;;4953420;29;19957;-78
2023/12/14 08:19:57;;;;;;;;;;;12.20;87.50;;;;;;4952498;29;19918;-78
2023/12/14 08:22:23;;;;;;;;;;;12.20;87.50;;;;;;4953480;28;19925;-80
2023/12/14 08:24:48;;;;;;;;;;;12.20;87.50;;;;;;4952729;29;19911;-79
2023/12/14 08:27:14;;;;;;;;;;;12.20;87.50;;;;;;4952575;29;20323;-79
2023/12/14 08:29:39;;;;;;;;;;;12.20;87.50;;;;;;4952386;29;20001;-78
2023/12/14 08:32:05;;;;;;;;;;;12.20;87.50;;;;;;4953038;28;19906;-79
2023/12/14 08:34:30;;;;;;;;;;;12.20;87.50;;;;;;4953543;29;19918;-78
2023/12/14 08:36:56;;;;;;;;;;;12.20;87.50;;;;;;4952750;29;19916;-79
2023/12/14 08:39:21;;;;;;;;;;;12.20;87.50;;;;;;4959760;28;20329;-78
2023/12/14 08:41:48;;;;;;;;;;;12.20;87.50;;;;;;4954737;28;20029;-78
2023/12/14 08:44:14;;;;;;;;;;;12.10;85.60;;;;;;4954332;28;19910;-78
2023/12/14 08:46:43;;;;;;;;;;;12.10;84.10;;;;;;4953790;28;19953;-79
2023/12/14 08:49:10;;;;;;;;;;;12.10;84.90;;;;;;4953922;28;19910;-77
2023/12/14 08:51:35;;;;;;;;;;;12.10;85.10;;;;;;4954097;28;19917;-78
2023/12/14 08:54:01;;;;;;;;;;;12.10;85.40;;;;;;4954028;28;19910;-77
2023/12/14 08:56:26;;;;;;;;;;;12.10;85.60;;;;;;4954973;28;19941;-79
2023/12/14 08:58:52;;;;;;;;;;;12.10;85.80;;;;;;4955373;28;19921;-78
2023/12/14 09:01:21;;;;;;;;;;;12.10;85.70;;;;;;4958020;28;20014;-78
2023/12/14 09:03:47;;;;;;;;;;;12.10;86.00;;;;;;4958599;28;19906;-78
2023/12/14 09:06:12;;;;;;;;;;;12.10;86.00;;;;;;4958256;28;19909;-79
2023/12/14 09:08:39;;;;;;;;;;;12.10;86.20;;;;;;4974955;28;19906;-78
2023/12/14 09:11:04;;;;;;;;;;;12.10;86.30;;;;;;4958265;28;20333;-78
2023/12/14 09:13:30;;;;;;;;;;;12.10;86.30;;;;;;4958632;28;19997;-78
2023/12/14 09:15:55;;;;;;;;;;;12.10;86.40;;;;;;4974905;28;19907;-79
2023/12/14 09:18:22;;;;;;;;;;;12.10;86.40;;;;;;4957151;28;19909;-78
2023/12/14 09:20:49;;;;;;;;;;;12.10;86.40;;;;;;4958128;28;20403;-77
2023/12/14 09:23:15;;;;;;;;;;;12.10;86.50;;;;;;4958060;28;20326;-78
2023/12/14 09:25:40;;;;;;;;;;;12.10;86.50;;;;;;4957544;28;19910;-76
2023/12/14 09:28:06;;;;;;;;;;;12.10;86.50;;;;;;4958145;28;19941;-78
2023/12/14 09:30:31;;;;;;;;;;;12.10;86.60;;;;;;4958482;28;19918;-77
2023/12/14 09:32:57;;;;;;;;;;;12.10;86.60;;;;;;4958290;28;19906;-77
2023/12/14 09:35:23;;;;;;;;;;;12.10;86.60;;;;;;4958108;28;19909;-78
2023/12/14 09:37:49;;;;;;;;;;;12.10;86.70;;;;;;4957599;28;19912;-77
2023/12/14 09:40:16;;;;;;;;;;;12.10;86.70;;;;;;4958438;28;19902;-78
2023/12/14 09:42:42;;;;;;;;;;;12.10;86.70;;;;;;4974855;28;19965;-78
2023/12/14 09:45:08;;;;;;;;;;;12.10;86.60;;;;;;4956910;28;20294;-78
2023/12/14 09:47:34;;;;;;;;;;;12.10;86.70;;;;;;4957327;28;19997;-78
2023/12/14 09:50:00;;;;;;;;;;;12.10;87.30;;;;;;4957801;28;19910;-77
2023/12/14 09:52:26;;;;;;;;;;;12.10;86.70;;;;;;4955227;28;19938;-77
2023/12/14 09:54:51;;;;;;;;;;;12.10;86.70;;;;;;4948214;28;19913;-77
2023/12/14 09:57:20;;;;;;;;;;;12.10;86.40;;;;;;4978939;28;19909;-76
2023/12/14 09:59:52;;;;;;;;;;;12.10;86.50;;;;;;4996035;28;19905;-78
2023/12/14 10:02:18;;;;;;;;;;;12.10;86.50;;;;;;4978587;28;19961;-76
2023/12/14 10:04:44;;;;;;;;;;;12.10;86.60;;;;;;4978279;28;19933;-76
2023/12/14 10:07:09;;;;;;;;;;;12.10;86.50;;;;;;4978196;28;19906;-76
2023/12/14 10:09:37;;;;;;;;;;;12.20;86.60;;;;;;4978199;28;19902;-77
2023/12/14 10:12:06;;;;;;;;;;;12.10;86.60;;;;;;4977365;28;19909;-76
2023/12/14 10:14:33;;;;;;;;;;;12.10;86.60;;;;;;4994860;28;19910;-76
2023/12/14 10:16:58;;;;;;;;;;;12.20;86.80;;;;;;4967090;28;19914;-76
2023/12/14 10:19:24;;;;;;;;;;;12.10;86.70;;;;;;4994165;28;20802;-76
2023/12/14 10:21:50;;;;;;;;;;;12.10;86.70;;;;;;4977266;28;20004;-77
2023/12/14 10:24:16;;;;;;;;;;;12.10;86.70;;;;;;4977744;28;19913;-78
2023/12/14 10:26:41;;;;;;;;;;;12.10;86.80;;;;;;4977348;28;19910;-77
2023/12/14 10:29:07;;;;;;;;;;;12.10;86.80;;;;;;4976698;28;20029;-76
2023/12/14 10:31:37;;;;;;;;;;;12.10;86.80;;;;;;4977544;28;20000;-77
2023/12/14 10:34:06;;;;;;;;;;;12.10;86.80;;;;;;4976283;28;20417;-76
2023/12/14 10:36:32;;;;;;;;;;;12.10;86.80;;;;;;4958891;28;20013;-77
2023/12/14 10:38:58;;;;;;;;;;;12.10;86.90;;;;;;4955163;28;19910;-77
2023/12/14 10:41:24;;;;;;;;;;;12.10;86.80;;;;;;4959355;28;19910;-76
2023/12/14 10:43:53;;;;;;;;;;;12.10;86.90;;;;;;4974638;28;19902;-77
2023/12/14 10:46:19;;;;;;;;;;;12.10;86.90;;;;;;4970959;28;19992;-76
2023/12/14 10:48:46;;;;;;;;;;;12.10;86.90;;;;;;4973940;28;19913;-78
2023/12/14 10:51:12;;;;;;;;;;;12.10;86.90;;;;;;4992612;28;19901;-78
2023/12/14 10:53:38;;;;;;;;;;;12.10;86.90;;;;;;4975235;28;19924;-78
2023/12/14 10:56:09;;;;;;;;;;;12.20;87.00;;;;;;4974564;28;19912;-78
2023/12/14 10:58:48;;;;;;;;;;;12.10;86.90;;;;;;4974754;28;20043;-78
2023/12/14 11:01:15;;;;;;;;;;;12.20;86.90;;;;;;4992691;28;19913;-78
2023/12/14 11:03:41;;;;;;;;;;;12.10;86.90;;;;;;4974508;28;19910;-77
2023/12/14 11:06:35;;;;;;;;;;;12.10;86.80;;;;;;4992752;28;20000;-78
2023/12/14 11:09:05;;;;;;;;;;;12.10;86.90;;;;;;4966644;28;19924;-77
2023/12/14 11:11:49;;;;;;;;;;;12.20;87.10;;;;;;4974605;28;20398;-78
2023/12/14 11:14:18;;;;;;;;;;;12.10;86.90;;;;;;4974702;28;19912;-78
2023/12/14 11:16:46;;;;;;;;;;;12.10;87.30;;;;;;4974873;28;19902;-77
2023/12/14 11:19:21;;;;;;;;;;;12.10;86.80;;;;;;4991917;28;19964;-77
2023/12/14 11:22:07;;;;;;;;;;;12.10;86.90;;;;;;4954119;28;19910;-77
2023/12/14 11:24:34;;;;;;;;;;;12.10;86.80;;;;;;4985147;28;19914;-78
2023/12/14 11:27:03;;;;;;;;;;;12.10;86.80;;;;;;4991618;28;19960;-77
2023/12/14 11:29:29;;;;;;;;;;;12.10;86.80;;;;;;4974132;28;19917;-78
2023/12/14 11:31:55;;;;;;;;;;;12.10;86.90;;;;;;4974328;28;19909;-77
2023/12/14 11:34:23;;;;;;;;;;;12.20;86.90;;;;;;4974205;28;19918;-78
2023/12/14 11:36:49;;;;;;;;;;;12.10;86.90;;;;;;4970508;28;19932;-77
2023/12/14 11:39:14;;;;;;;;;;;12.10;86.90;;;;;;4959818;28;19918;-77
2023/12/14 11:41:40;;;;;;;;;;;12.10;86.90;;;;;;4951477;28;19937;-78
2023/12/14 11:44:05;;;;;;;;;;;12.10;86.90;;;;;;4953036;29;19916;-78
2023/12/14 11:46:31;;;;;;;;;;;12.10;86.80;;;;;;4951505;28;19985;-76
2023/12/14 11:48:57;;;;;;;;;;;12.10;86.80;;;;;;4954990;28;20056;-78
2023/12/14 11:51:23;;;;;;;;;;;12.10;86.80;;;;;;4954441;28;20392;-77
2023/12/14 11:53:49;;;;;;;;;;;12.20;86.90;;;;;;4954741;28;19910;-78
2023/12/14 11:56:17;;;;;;;;;;;12.20;86.80;;;;;;4954073;28;20301;-78
2023/12/14 11:58:43;;;;;;;;;;;12.20;86.80;;;;;;4953797;28;19917;-79
2023/12/14 12:01:16;;;;;;;;;;;12.20;86.90;;;;;;4971979;28;20259;-78
2023/12/14 12:03:44;;;;;;;;;;;12.20;86.80;;;;;;4972392;28;19960;-78
2023/12/14 12:06:19;;;;;;;;;;;12.30;86.80;;;;;;4954335;28;19906;-78
2023/12/14 12:08:45;;;;;;;;;;;12.20;86.80;;;;;;4955021;28;20049;-78
2023/12/14 12:11:10;;;;;;;;;;;12.20;86.70;;;;;;4954887;28;20040;-77
2023/12/14 12:13:36;;;;;;;;;;;12.20;86.90;;;;;;4972011;28;19909;-78
2023/12/14 12:16:01;;;;;;;;;;;12.20;86.90;;;;;;4954031;28;19917;-77
2023/12/14 12:18:27;;;;;;;;;;;12.20;86.80;;;;;;4971590;28;19917;-77
2023/12/14 12:20:53;;;;;;;;;;;12.20;86.80;;;;;;4954119;28;19917;-78
2023/12/14 12:23:18;;;;;;;;;;;12.20;86.90;;;;;;4955242;28;19914;-78
2023/12/14 12:25:44;;;;;;;;;;;12.20;86.90;;;;;;4954993;28;20013;-78
2023/12/14 12:28:09;;;;;;;;;;;12.20;86.80;;;;;;4954138;28;19913;-78
2023/12/14 12:30:35;;;;;;;;;;;12.10;86.80;;;;;;4971313;28;20025;-78
2023/12/14 12:33:01;;;;;;;;;;;12.10;86.80;;;;;;4954083;28;19921;-76
2023/12/14 12:35:26;;;;;;;;;;;12.20;87.00;;;;;;4958054;28;19985;-78
2023/12/14 12:37:55;;;;;;;;;;;12.20;86.90;;;;;;4958615;28;19914;-78
2023/12/14 12:40:26;;;;;;;;;;;12.20;86.90;;;;;;4958349;28;20371;-78
2023/12/14 12:42:52;;;;;;;;;;;12.10;86.80;;;;;;4958094;28;19914;-78
2023/12/14 12:45:17;;;;;;;;;;;12.20;87.00;;;;;;4958536;28;20385;-78
2023/12/14 12:47:43;;;;;;;;;;;12.20;87.40;;;;;;4958048;28;19906;-78
2023/12/14 12:50:09;;;;;;;;;;;12.20;87.00;;;;;;4958829;28;19996;-78
2023/12/14 12:52:34;;;;;;;;;;;12.20;86.90;;;;;;4975901;28;20008;-78
2023/12/14 12:55:00;;;;;;;;;;;12.20;86.90;;;;;;4975420;28;20371;-76
2023/12/14 12:57:26;;;;;;;;;;;12.20;86.90;;;;;;4957639;28;20543;-79
2023/12/14 12:59:51;;;;;;;;;;;12.20;86.80;;;;;;4957176;28;20294;-77
2023/12/14 13:02:17;;;;;;;;;;;12.20;86.80;;;;;;4957883;28;19910;-78
2023/12/14 13:04:42;;;;;;;;;;;12.20;86.90;;;;;;4958079;28;19976;-78
2023/12/14 13:07:08;;;;;;;;;;;12.20;86.90;;;;;;4957651;28;20371;-78
2023/12/14 13:09:33;;;;;;;;;;;12.20;86.80;;;;;;4957557;28;20397;-78
2023/12/14 13:11:59;;;;;;;;;;;12.20;86.80;;;;;;4956879;28;20538;-79
2023/12/14 13:14:24;;;;;;;;;;;12.20;86.90;;;;;;4957831;28;19906;-79
2023/12/14 13:16:49;;;;;;;;;;;12.20;86.90;;;;;;4957045;28;19929;-78
2023/12/14 13:19:15;;;;;;;;;;;12.20;86.70;;;;;;4957181;28;19981;-78
2023/12/14 13:21:41;;;;;;;;;;;12.20;86.90;;;;;;4957172;28;19917;-77
2023/12/14 13:24:06;;;;;;;;;;;12.20;86.80;;;;;;4957106;28;19906;-78
2023/12/14 13:26:31;;;;;;;;;;;12.20;86.90;;;;;;4956653;28;19917;-77
2023/12/14 13:28:57;;;;;;;;;;;12.20;86.80;;;;;;4957091;28;19981;-78
2023/12/14 13:31:22;;;;;;;;;;;12.20;86.90;;;;;;4957247;28;19910;-77
2023/12/14 13:33:48;;;;;;;;;;;12.20;86.80;;;;;;4957017;28;20682;-78
2023/12/14 13:36:15;;;;;;;;;;;12.20;86.80;;;;;;4957320;28;20641;-78
2023/12/14 13:38:41;;;;;;;;;;;12.20;86.90;;;;;;4958407;28;19937;-79
2023/12/14 13:41:07;;;;;;;;;;;12.20;86.90;;;;;;4958211;28;19937;-78
2023/12/14 13:43:32;;;;;;;;;;;12.20;87.00;;;;;;4957098;28;20370;-78
2023/12/14 13:45:58;;;;;;;;;;;12.20;87.00;;;;;;4956655;28;19917;-78
2023/12/14 13:48:24;;;;;;;;;;;12.20;87.00;;;;;;4974628;28;19909;-78
2023/12/14 13:50:50;;;;;;;;;;;12.10;86.80;;;;;;4958033;28;19932;-78
2023/12/14 13:53:15;;;;;;;;;;;12.20;86.90;;;;;;4957502;28;19970;-77
2023/12/14 13:55:41;;;;;;;;;;;12.20;86.80;;;;;;4957210;28;19906;-78
2023/12/14 13:58:06;;;;;;;;;;;12.20;86.80;;;;;;4956863;28;19902;-77
2023/12/14 14:00:32;;;;;;;;;;;12.20;86.80;;;;;;4957307;28;19906;-77
2023/12/14 14:02:58;;;;;;;;;;;12.10;86.80;;;;;;4956273;28;20349;-78
2023/12/14 14:05:23;;;;;;;;;;;12.20;86.90;;;;;;4957448;28;19902;-78
2023/12/14 14:07:49;;;;;;;;;;;12.10;86.80;;;;;;4957050;28;20418;-78
2023/12/14 14:10:14;;;;;;;;;;;12.10;86.90;;;;;;4957460;28;19909;-78
2023/12/14 14:12:40;;;;;;;;;;;12.10;86.80;;;;;;4956847;28;20539;-77
2023/12/14 14:15:05;;;;;;;;;;;12.10;87.00;;;;;;4974367;28;20260;-78
2023/12/14 14:17:31;;;;;;;;;;;12.10;86.80;;;;;;4956872;28;20004;-77
2023/12/14 14:19:56;;;;;;;;;;;12.10;87.00;;;;;;4956436;28;19906;-77
2023/12/14 14:22:22;;;;;;;;;;;12.20;87.00;;;;;;4956339;28;19917;-78
2023/12/14 14:24:47;;;;;;;;;;;12.20;86.90;;;;;;4955920;28;20282;-78
2023/12/14 14:27:13;;;;;;;;;;;12.20;87.00;;;;;;4956435;28;19948;-78
2023/12/14 14:29:38;;;;;;;;;;;12.10;86.90;;;;;;4955733;28;19914;-79
2023/12/14 14:32:04;;;;;;;;;;;12.10;86.90;;;;;;4973580;28;19984;-78
2023/12/14 14:34:30;;;;;;;;;;;12.10;87.00;;;;;;4956104;28;20086;-78
2023/12/14 14:36:55;;;;;;;;;;;12.10;87.00;;;;;;4955726;28;19910;-79
2023/12/14 14:39:21;;;;;;;;;;;12.10;87.10;;;;;;4973554;28;19910;-78
2023/12/14 14:41:46;;;;;;;;;;;12.10;87.00;;;;;;4955207;28;19975;-77
2023/12/14 14:44:12;;;;;;;;;;;12.10;87.00;;;;;;4955289;28;19998;-77
2023/12/14 14:46:38;;;;;;;;;;;12.10;87.10;;;;;;4970999;28;19993;-78
2023/12/14 14:49:03;;;;;;;;;;;12.10;87.00;;;;;;4954167;28;19918;-78
2023/12/14 14:51:29;;;;;;;;;;;12.10;87.10;;;;;;4956651;28;19906;-78
2023/12/14 14:53:58;;;;;;;;;;;12.10;87.10;;;;;;4955814;28;20264;-77
2023/12/14 14:56:23;;;;;;;;;;;12.10;87.10;;;;;;4954693;28;20042;-78
2023/12/14 14:58:49;;;;;;;;;;;12.10;87.10;;;;;;4954405;28;20458;-77
2023/12/14 15:01:14;;;;;;;;;;;12.10;87.10;;;;;;4955662;28;20289;-77
2023/12/14 15:03:39;;;;;;;;;;;12.10;87.10;;;;;;4955051;28;19910;-78
2023/12/14 15:06:05;;;;;;;;;;;12.10;87.20;;;;;;4972048;28;19910;-77
2023/12/14 15:08:30;;;;;;;;;;;12.10;87.20;;;;;;4954517;28;19906;-77
2023/12/14 15:10:57;;;;;;;;;;;12.10;87.20;;;;;;4972111;28;20358;-76
2023/12/14 15:13:23;;;;;;;;;;;12.10;87.20;;;;;;4954665;28;19916;-77
2023/12/14 15:15:48;;;;;;;;;;;12.10;87.20;;;;;;4953056;28;20008;-77
2023/12/14 15:18:14;;;;;;;;;;;12.10;87.30;;;;;;4956644;28;20342;-77
2023/12/14 15:20:40;;;;;;;;;;;12.10;87.30;;;;;;4955348;28;20255;-77
2023/12/14 15:23:07;;;;;;;;;;;12.10;87.20;;;;;;4957510;28;19910;-77
2023/12/14 15:25:33;;;;;;;;;;;12.10;87.20;;;;;;4956542;28;20012;-79
2023/12/14 15:27:59;;;;;;;;;;;12.10;87.30;;;;;;4972762;28;19945;-78
2023/12/14 15:30:25;;;;;;;;;;;12.10;87.20;;;;;;4954962;28;19906;-78
2023/12/14 15:32:50;;;;;;;;;;;12.10;87.00;;;;;;4956256;28;20008;-77
2023/12/14 15:35:16;;;;;;;;;;;12.10;87.00;;;;;;4954487;28;19948;-77
2023/12/14 15:37:42;;;;;;;;;;;12.10;87.10;;;;;;4954981;28;19906;-77
2023/12/14 15:40:08;;;;;;;;;;;12.00;87.00;;;;;;4954589;28;19906;-76
2023/12/14 15:42:34;;;;;;;;;;;12.10;87.10;;;;;;4956805;28;19917;-79
2023/12/14 15:44:59;;;;;;;;;;;12.10;87.10;;;;;;4954979;28;19910;-77
2023/12/14 15:47:25;;;;;;;;;;;12.10;87.10;;;;;;4972267;28;20449;-79
2023/12/14 15:49:50;;;;;;;;;;;12.10;86.90;;;;;;4973215;28;20489;-78
2023/12/14 15:52:16;;;;;;;;;;;12.10;86.80;;;;;;4956218;28;19925;-76